<?xml version="1.0" encoding="UTF-8" standalone="no" ?>
<gpx xmlns="http://www.topografix.com/GPX/1/1" xmlns:xsi="http://www.w3.org/2001/XMLSchema-instance" xsi:schemaLocation="http://www.topografix.com/GPX/1/1 http://www.topografix.com/GPX/1/1/gpx.xsd" version="1.1" creator="VisuGPX - https://www.visugpx.com">
  <metadata>
    <name>caoulet jeudi 18 décembre 2014</name>
    <desc><![CDATA[caoulet  18 décembre 2014]]></desc>
  </metadata>
  <wpt lat="44.24784" lon="0.62561">
    <ele>150</ele>
    <name><![CDATA[jeudi 18 décembre 2014]]></name>
    <desc><![CDATA[Hauteur de 150 m]]></desc>
    <cmt><![CDATA[Hauteur de 150 m]]></cmt>
  </wpt>
  <wpt lat="44.22993" lon="0.62294">
    <ele>149.14453125</ele>
    <name><![CDATA[Page]]></name>
    <desc><![CDATA[Page]]></desc>
    <cmt><![CDATA[Page]]></cmt>
  </wpt>
  <wpt lat="44.24364" lon="0.63566">
    <ele>192.625</ele>
    <name><![CDATA[Poquet]]></name>
    <desc><![CDATA[Poquet]]></desc>
    <cmt><![CDATA[Poquet]]></cmt>
  </wpt>
  <wpt lat="44.23413" lon="0.63169">
    <ele>152.421875</ele>
    <name><![CDATA[Sarraillés]]></name>
    <desc><![CDATA[Sarraillés]]></desc>
    <cmt><![CDATA[Sarraillés]]></cmt>
  </wpt>
  <wpt lat="44.23413" lon="0.63169">
    <ele>152.421875</ele>
    <name><![CDATA[Sarraillés1]]></name>
    <desc><![CDATA[Sarraillés]]></desc>
    <cmt><![CDATA[Sarraillés]]></cmt>
  </wpt>
  <trk>
    <name><![CDATA[ACTIVE LOG 001]]></name>
    <trkseg>
      <trkpt lat="44.23955" lon="0.64026">
        <ele>142.41247558594</ele>
        <time>2014-12-18T13:21:52Z</time>
      </trkpt>
      <trkpt lat="44.23955" lon="0.64019">
        <ele>118.86010742188</ele>
        <time>2014-12-18T13:21:57Z</time>
      </trkpt>
      <trkpt lat="44.23942" lon="0.63989">
        <ele>108.76623535156</ele>
        <time>2014-12-18T13:22:16Z</time>
      </trkpt>
      <trkpt lat="44.23932" lon="0.63972">
        <ele>103.95971679688</ele>
        <time>2014-12-18T13:22:35Z</time>
      </trkpt>
      <trkpt lat="44.23919" lon="0.63939">
        <ele>105.40173339844</ele>
        <time>2014-12-18T13:22:52Z</time>
      </trkpt>
      <trkpt lat="44.2391" lon="0.63931">
        <ele>102.51770019531</ele>
        <time>2014-12-18T13:23:02Z</time>
      </trkpt>
      <trkpt lat="44.23906" lon="0.6393">
        <ele>102.99829101562</ele>
        <time>2014-12-18T13:23:06Z</time>
      </trkpt>
      <trkpt lat="44.23892" lon="0.63912">
        <ele>101.07568359375</ele>
        <time>2014-12-18T13:23:23Z</time>
      </trkpt>
      <trkpt lat="44.23877" lon="0.63898">
        <ele>98.19189453125</ele>
        <time>2014-12-18T13:23:39Z</time>
      </trkpt>
      <trkpt lat="44.23866" lon="0.63884">
        <ele>95.307739257812</ele>
        <time>2014-12-18T13:23:53Z</time>
      </trkpt>
      <trkpt lat="44.23855" lon="0.63857">
        <ele>97.711181640625</ele>
        <time>2014-12-18T13:24:09Z</time>
      </trkpt>
      <trkpt lat="44.2384" lon="0.63836">
        <ele>101.07568359375</ele>
        <time>2014-12-18T13:24:25Z</time>
      </trkpt>
      <trkpt lat="44.23836" lon="0.63826">
        <ele>100.59509277344</ele>
        <time>2014-12-18T13:24:31Z</time>
      </trkpt>
      <trkpt lat="44.23829" lon="0.63821">
        <ele>101.07568359375</ele>
        <time>2014-12-18T13:24:37Z</time>
      </trkpt>
      <trkpt lat="44.2382" lon="0.63808">
        <ele>104.4404296875</ele>
        <time>2014-12-18T13:24:50Z</time>
      </trkpt>
      <trkpt lat="44.23808" lon="0.63795">
        <ele>107.32434082031</ele>
        <time>2014-12-18T13:25:02Z</time>
      </trkpt>
      <trkpt lat="44.23805" lon="0.6379">
        <ele>106.84362792969</ele>
        <time>2014-12-18T13:25:06Z</time>
      </trkpt>
      <trkpt lat="44.23787" lon="0.63772">
        <ele>106.36303710938</ele>
        <time>2014-12-18T13:25:29Z</time>
      </trkpt>
      <trkpt lat="44.23776" lon="0.63761">
        <ele>105.40173339844</ele>
        <time>2014-12-18T13:25:44Z</time>
      </trkpt>
      <trkpt lat="44.23769" lon="0.63751">
        <ele>104.4404296875</ele>
        <time>2014-12-18T13:25:59Z</time>
      </trkpt>
      <trkpt lat="44.23769" lon="0.6375">
        <ele>104.4404296875</ele>
        <time>2014-12-18T13:26:00Z</time>
      </trkpt>
      <trkpt lat="44.23754" lon="0.63753">
        <ele>102.037109375</ele>
        <time>2014-12-18T13:26:18Z</time>
      </trkpt>
      <trkpt lat="44.23751" lon="0.63756">
        <ele>102.037109375</ele>
        <time>2014-12-18T13:26:22Z</time>
      </trkpt>
      <trkpt lat="44.23741" lon="0.63768">
        <ele>100.59509277344</ele>
        <time>2014-12-18T13:26:37Z</time>
      </trkpt>
      <trkpt lat="44.23727" lon="0.63782">
        <ele>98.19189453125</ele>
        <time>2014-12-18T13:26:53Z</time>
      </trkpt>
      <trkpt lat="44.23725" lon="0.63784">
        <ele>97.711181640625</ele>
        <time>2014-12-18T13:26:57Z</time>
      </trkpt>
      <trkpt lat="44.23724" lon="0.63788">
        <ele>97.711181640625</ele>
        <time>2014-12-18T13:27:00Z</time>
      </trkpt>
      <trkpt lat="44.23716" lon="0.63796">
        <ele>96.269287109375</ele>
        <time>2014-12-18T13:27:11Z</time>
      </trkpt>
      <trkpt lat="44.23709" lon="0.63802">
        <ele>95.307739257812</ele>
        <time>2014-12-18T13:27:45Z</time>
      </trkpt>
      <trkpt lat="44.23698" lon="0.63806">
        <ele>94.8271484375</ele>
        <time>2014-12-18T13:27:57Z</time>
      </trkpt>
      <trkpt lat="44.23683" lon="0.63801">
        <ele>94.8271484375</ele>
        <time>2014-12-18T13:28:11Z</time>
      </trkpt>
      <trkpt lat="44.23672" lon="0.63796">
        <ele>95.788452148438</ele>
        <time>2014-12-18T13:28:25Z</time>
      </trkpt>
      <trkpt lat="44.23658" lon="0.63787">
        <ele>99.6337890625</ele>
        <time>2014-12-18T13:28:42Z</time>
      </trkpt>
      <trkpt lat="44.23644" lon="0.63785">
        <ele>102.51770019531</ele>
        <time>2014-12-18T13:28:56Z</time>
      </trkpt>
      <trkpt lat="44.23637" lon="0.63781">
        <ele>103.47900390625</ele>
        <time>2014-12-18T13:29:03Z</time>
      </trkpt>
      <trkpt lat="44.23627" lon="0.63777">
        <ele>107.80505371094</ele>
        <time>2014-12-18T13:29:13Z</time>
      </trkpt>
      <trkpt lat="44.23619" lon="0.63769">
        <ele>107.32434082031</ele>
        <time>2014-12-18T13:29:21Z</time>
      </trkpt>
      <trkpt lat="44.23606" lon="0.63762">
        <ele>108.28564453125</ele>
        <time>2014-12-18T13:29:38Z</time>
      </trkpt>
      <trkpt lat="44.23595" lon="0.63754">
        <ele>108.28564453125</ele>
        <time>2014-12-18T13:29:51Z</time>
      </trkpt>
      <trkpt lat="44.2358" lon="0.63748">
        <ele>110.68884277344</ele>
        <time>2014-12-18T13:30:08Z</time>
      </trkpt>
      <trkpt lat="44.23572" lon="0.63745">
        <ele>109.24694824219</ele>
        <time>2014-12-18T13:30:17Z</time>
      </trkpt>
      <trkpt lat="44.23565" lon="0.63746">
        <ele>107.32434082031</ele>
        <time>2014-12-18T13:30:23Z</time>
      </trkpt>
      <trkpt lat="44.23559" lon="0.63747">
        <ele>106.36303710938</ele>
        <time>2014-12-18T13:30:30Z</time>
      </trkpt>
      <trkpt lat="44.2355" lon="0.63752">
        <ele>103.95971679688</ele>
        <time>2014-12-18T13:30:43Z</time>
      </trkpt>
      <trkpt lat="44.23539" lon="0.63754">
        <ele>103.47900390625</ele>
        <time>2014-12-18T13:30:57Z</time>
      </trkpt>
      <trkpt lat="44.23526" lon="0.6375">
        <ele>103.47900390625</ele>
        <time>2014-12-18T13:31:13Z</time>
      </trkpt>
      <trkpt lat="44.23528" lon="0.63747">
        <ele>104.4404296875</ele>
        <time>2014-12-18T13:31:33Z</time>
      </trkpt>
      <trkpt lat="44.2352" lon="0.63751">
        <ele>105.88244628906</ele>
        <time>2014-12-18T13:31:58Z</time>
      </trkpt>
      <trkpt lat="44.23509" lon="0.63741">
        <ele>104.92102050781</ele>
        <time>2014-12-18T13:32:18Z</time>
      </trkpt>
      <trkpt lat="44.23512" lon="0.63737">
        <ele>103.95971679688</ele>
        <time>2014-12-18T13:32:26Z</time>
      </trkpt>
      <trkpt lat="44.23526" lon="0.63738">
        <ele>101.07568359375</ele>
        <time>2014-12-18T13:32:46Z</time>
      </trkpt>
      <trkpt lat="44.23524" lon="0.63733">
        <ele>97.23046875</ele>
        <time>2014-12-18T13:33:05Z</time>
      </trkpt>
      <trkpt lat="44.23524" lon="0.6373">
        <ele>96.269287109375</ele>
        <time>2014-12-18T13:33:07Z</time>
      </trkpt>
      <trkpt lat="44.23516" lon="0.63712">
        <ele>91.462524414062</ele>
        <time>2014-12-18T13:33:22Z</time>
      </trkpt>
      <trkpt lat="44.23512" lon="0.63697">
        <ele>88.578735351562</ele>
        <time>2014-12-18T13:33:35Z</time>
      </trkpt>
      <trkpt lat="44.23508" lon="0.63674">
        <ele>85.694580078125</ele>
        <time>2014-12-18T13:33:51Z</time>
      </trkpt>
      <trkpt lat="44.23504" lon="0.6365">
        <ele>84.7333984375</ele>
        <time>2014-12-18T13:34:10Z</time>
      </trkpt>
      <trkpt lat="44.235" lon="0.63644">
        <ele>84.7333984375</ele>
        <time>2014-12-18T13:34:15Z</time>
      </trkpt>
      <trkpt lat="44.23492" lon="0.63639">
        <ele>84.7333984375</ele>
        <time>2014-12-18T13:34:21Z</time>
      </trkpt>
      <trkpt lat="44.23488" lon="0.63637">
        <ele>84.252685546875</ele>
        <time>2014-12-18T13:34:24Z</time>
      </trkpt>
      <trkpt lat="44.23474" lon="0.63632">
        <ele>82.810791015625</ele>
        <time>2014-12-18T13:34:38Z</time>
      </trkpt>
      <trkpt lat="44.23459" lon="0.63622">
        <ele>80.88818359375</ele>
        <time>2014-12-18T13:34:55Z</time>
      </trkpt>
      <trkpt lat="44.23456" lon="0.63619">
        <ele>81.368774414062</ele>
        <time>2014-12-18T13:34:58Z</time>
      </trkpt>
      <trkpt lat="44.23449" lon="0.63611">
        <ele>81.849365234375</ele>
        <time>2014-12-18T13:35:05Z</time>
      </trkpt>
      <trkpt lat="44.23439" lon="0.63602">
        <ele>83.291381835938</ele>
        <time>2014-12-18T13:35:16Z</time>
      </trkpt>
      <trkpt lat="44.23433" lon="0.63598">
        <ele>82.330078125</ele>
        <time>2014-12-18T13:35:22Z</time>
      </trkpt>
      <trkpt lat="44.23424" lon="0.63592">
        <ele>81.368774414062</ele>
        <time>2014-12-18T13:35:30Z</time>
      </trkpt>
      <trkpt lat="44.23423" lon="0.63576">
        <ele>76.562133789062</ele>
        <time>2014-12-18T13:35:46Z</time>
      </trkpt>
      <trkpt lat="44.2342" lon="0.63569">
        <ele>76.562133789062</ele>
        <time>2014-12-18T13:35:51Z</time>
      </trkpt>
      <trkpt lat="44.23412" lon="0.63558">
        <ele>77.042846679688</ele>
        <time>2014-12-18T13:36:05Z</time>
      </trkpt>
      <trkpt lat="44.23394" lon="0.63541">
        <ele>81.368774414062</ele>
        <time>2014-12-18T13:36:30Z</time>
      </trkpt>
      <trkpt lat="44.23373" lon="0.63523">
        <ele>80.88818359375</ele>
        <time>2014-12-18T13:36:47Z</time>
      </trkpt>
      <trkpt lat="44.23365" lon="0.63518">
        <ele>79.446044921875</ele>
        <time>2014-12-18T13:37:01Z</time>
      </trkpt>
      <trkpt lat="44.23354" lon="0.63504">
        <ele>78.484741210938</ele>
        <time>2014-12-18T13:37:14Z</time>
      </trkpt>
      <trkpt lat="44.23354" lon="0.63502">
        <ele>78.484741210938</ele>
        <time>2014-12-18T13:37:16Z</time>
      </trkpt>
      <trkpt lat="44.23344" lon="0.63481">
        <ele>75.600830078125</ele>
        <time>2014-12-18T13:37:32Z</time>
      </trkpt>
      <trkpt lat="44.23342" lon="0.63466">
        <ele>73.67822265625</ele>
        <time>2014-12-18T13:37:42Z</time>
      </trkpt>
      <trkpt lat="44.23342" lon="0.63445">
        <ele>69.832885742188</ele>
        <time>2014-12-18T13:38:01Z</time>
      </trkpt>
      <trkpt lat="44.23341" lon="0.63425">
        <ele>65.987670898438</ele>
        <time>2014-12-18T13:38:19Z</time>
      </trkpt>
      <trkpt lat="44.2334" lon="0.63408">
        <ele>64.065063476562</ele>
        <time>2014-12-18T13:38:34Z</time>
      </trkpt>
      <trkpt lat="44.23339" lon="0.6339">
        <ele>62.622924804688</ele>
        <time>2014-12-18T13:38:53Z</time>
      </trkpt>
      <trkpt lat="44.23338" lon="0.63362">
        <ele>62.142333984375</ele>
        <time>2014-12-18T13:39:18Z</time>
      </trkpt>
      <trkpt lat="44.23334" lon="0.63348">
        <ele>65.987670898438</ele>
        <time>2014-12-18T13:39:35Z</time>
      </trkpt>
      <trkpt lat="44.23329" lon="0.63328">
        <ele>78.004028320312</ele>
        <time>2014-12-18T13:39:53Z</time>
      </trkpt>
      <trkpt lat="44.23328" lon="0.63325">
        <ele>77.5234375</ele>
        <time>2014-12-18T13:39:57Z</time>
      </trkpt>
      <trkpt lat="44.23324" lon="0.63312">
        <ele>79.446044921875</ele>
        <time>2014-12-18T13:40:06Z</time>
      </trkpt>
      <trkpt lat="44.23314" lon="0.63296">
        <ele>84.252685546875</ele>
        <time>2014-12-18T13:40:16Z</time>
      </trkpt>
      <trkpt lat="44.23313" lon="0.63293">
        <ele>84.7333984375</ele>
        <time>2014-12-18T13:40:18Z</time>
      </trkpt>
      <trkpt lat="44.2331" lon="0.63291">
        <ele>84.7333984375</ele>
        <time>2014-12-18T13:40:20Z</time>
      </trkpt>
      <trkpt lat="44.23308" lon="0.63285">
        <ele>85.694580078125</ele>
        <time>2014-12-18T13:40:24Z</time>
      </trkpt>
      <trkpt lat="44.23317" lon="0.63276">
        <ele>86.17529296875</ele>
        <time>2014-12-18T13:40:39Z</time>
      </trkpt>
      <trkpt lat="44.23321" lon="0.63266">
        <ele>88.578735351562</ele>
        <time>2014-12-18T13:40:53Z</time>
      </trkpt>
      <trkpt lat="44.23319" lon="0.63251">
        <ele>92.904541015625</ele>
        <time>2014-12-18T13:41:08Z</time>
      </trkpt>
      <trkpt lat="44.23317" lon="0.63231">
        <ele>97.23046875</ele>
        <time>2014-12-18T13:41:24Z</time>
      </trkpt>
      <trkpt lat="44.23315" lon="0.63213">
        <ele>99.153076171875</ele>
        <time>2014-12-18T13:41:40Z</time>
      </trkpt>
      <trkpt lat="44.23311" lon="0.63201">
        <ele>100.59509277344</ele>
        <time>2014-12-18T13:41:55Z</time>
      </trkpt>
      <trkpt lat="44.23309" lon="0.63182">
        <ele>102.51770019531</ele>
        <time>2014-12-18T13:42:12Z</time>
      </trkpt>
      <trkpt lat="44.23309" lon="0.63169">
        <ele>102.99829101562</ele>
        <time>2014-12-18T13:42:27Z</time>
      </trkpt>
      <trkpt lat="44.23319" lon="0.63162">
        <ele>102.037109375</ele>
        <time>2014-12-18T13:42:44Z</time>
      </trkpt>
      <trkpt lat="44.23334" lon="0.63175">
        <ele>100.59509277344</ele>
        <time>2014-12-18T13:43:03Z</time>
      </trkpt>
      <trkpt lat="44.23335" lon="0.63176">
        <ele>100.11450195312</ele>
        <time>2014-12-18T13:43:04Z</time>
      </trkpt>
      <trkpt lat="44.23342" lon="0.63184">
        <ele>102.51770019531</ele>
        <time>2014-12-18T13:43:19Z</time>
      </trkpt>
      <trkpt lat="44.23351" lon="0.63201">
        <ele>109.24694824219</ele>
        <time>2014-12-18T13:43:37Z</time>
      </trkpt>
      <trkpt lat="44.23357" lon="0.63212">
        <ele>119.82141113281</ele>
        <time>2014-12-18T13:43:53Z</time>
      </trkpt>
      <trkpt lat="44.23364" lon="0.63224">
        <ele>129.91528320312</ele>
        <time>2014-12-18T13:44:12Z</time>
      </trkpt>
      <trkpt lat="44.23367" lon="0.63226">
        <ele>130.87670898438</ele>
        <time>2014-12-18T13:44:17Z</time>
      </trkpt>
      <trkpt lat="44.23374" lon="0.63232">
        <ele>131.837890625</ele>
        <time>2014-12-18T13:44:30Z</time>
      </trkpt>
      <trkpt lat="44.23384" lon="0.63241">
        <ele>135.20251464844</ele>
        <time>2014-12-18T13:44:46Z</time>
      </trkpt>
      <trkpt lat="44.23396" lon="0.6325">
        <ele>138.08654785156</ele>
        <time>2014-12-18T13:45:04Z</time>
      </trkpt>
      <trkpt lat="44.23407" lon="0.63259">
        <ele>142.41247558594</ele>
        <time>2014-12-18T13:45:23Z</time>
      </trkpt>
      <trkpt lat="44.23416" lon="0.63259">
        <ele>142.89306640625</ele>
        <time>2014-12-18T13:45:39Z</time>
      </trkpt>
      <trkpt lat="44.23438" lon="0.6325">
        <ele>145.29638671875</ele>
        <time>2014-12-18T13:46:01Z</time>
      </trkpt>
      <trkpt lat="44.23451" lon="0.6324">
        <ele>145.77709960938</ele>
        <time>2014-12-18T13:46:19Z</time>
      </trkpt>
      <trkpt lat="44.23465" lon="0.63232">
        <ele>141.45104980469</ele>
        <time>2014-12-18T13:46:37Z</time>
      </trkpt>
      <trkpt lat="44.23461" lon="0.6322">
        <ele>139.0478515625</ele>
        <time>2014-12-18T13:46:52Z</time>
      </trkpt>
      <trkpt lat="44.2345" lon="0.63212">
        <ele>136.64465332031</ele>
        <time>2014-12-18T13:47:06Z</time>
      </trkpt>
      <trkpt lat="44.23437" lon="0.63203">
        <ele>135.20251464844</ele>
        <time>2014-12-18T13:47:27Z</time>
      </trkpt>
      <trkpt lat="44.23435" lon="0.632">
        <ele>135.20251464844</ele>
        <time>2014-12-18T13:47:52Z</time>
      </trkpt>
      <trkpt lat="44.23432" lon="0.63198">
        <ele>134.72192382812</ele>
        <time>2014-12-18T13:48:09Z</time>
      </trkpt>
      <trkpt lat="44.2342" lon="0.63182">
        <ele>132.79931640625</ele>
        <time>2014-12-18T13:48:31Z</time>
      </trkpt>
      <trkpt lat="44.23432" lon="0.63155">
        <ele>133.76049804688</ele>
        <time>2014-12-18T13:48:58Z</time>
      </trkpt>
      <trkpt lat="44.23415" lon="0.6314">
        <ele>132.79931640625</ele>
        <time>2014-12-18T13:49:16Z</time>
      </trkpt>
      <trkpt lat="44.234" lon="0.63121">
        <ele>133.27990722656</ele>
        <time>2014-12-18T13:49:40Z</time>
      </trkpt>
      <trkpt lat="44.23385" lon="0.63111">
        <ele>134.2412109375</ele>
        <time>2014-12-18T13:50:00Z</time>
      </trkpt>
      <trkpt lat="44.23366" lon="0.63127">
        <ele>130.87670898438</ele>
        <time>2014-12-18T13:50:20Z</time>
      </trkpt>
      <trkpt lat="44.23356" lon="0.63129">
        <ele>131.837890625</ele>
        <time>2014-12-18T13:50:32Z</time>
      </trkpt>
      <trkpt lat="44.23354" lon="0.63128">
        <ele>131.837890625</ele>
        <time>2014-12-18T13:50:35Z</time>
      </trkpt>
      <trkpt lat="44.23339" lon="0.63116">
        <ele>131.837890625</ele>
        <time>2014-12-18T13:50:52Z</time>
      </trkpt>
      <trkpt lat="44.23336" lon="0.63109">
        <ele>133.27990722656</ele>
        <time>2014-12-18T13:50:58Z</time>
      </trkpt>
      <trkpt lat="44.23319" lon="0.63087">
        <ele>133.27990722656</ele>
        <time>2014-12-18T13:51:24Z</time>
      </trkpt>
      <trkpt lat="44.23307" lon="0.63061">
        <ele>134.72192382812</ele>
        <time>2014-12-18T13:51:43Z</time>
      </trkpt>
      <trkpt lat="44.23294" lon="0.63036">
        <ele>133.27990722656</ele>
        <time>2014-12-18T13:52:02Z</time>
      </trkpt>
      <trkpt lat="44.23283" lon="0.63015">
        <ele>130.39599609375</ele>
        <time>2014-12-18T13:52:19Z</time>
      </trkpt>
      <trkpt lat="44.23272" lon="0.62992">
        <ele>129.91528320312</ele>
        <time>2014-12-18T13:52:37Z</time>
      </trkpt>
      <trkpt lat="44.23265" lon="0.62977">
        <ele>131.837890625</ele>
        <time>2014-12-18T13:52:49Z</time>
      </trkpt>
      <trkpt lat="44.23258" lon="0.62961">
        <ele>133.27990722656</ele>
        <time>2014-12-18T13:52:59Z</time>
      </trkpt>
      <trkpt lat="44.23257" lon="0.62958">
        <ele>134.2412109375</ele>
        <time>2014-12-18T13:53:01Z</time>
      </trkpt>
      <trkpt lat="44.23245" lon="0.62934">
        <ele>132.31860351562</ele>
        <time>2014-12-18T13:53:23Z</time>
      </trkpt>
      <trkpt lat="44.23241" lon="0.62932">
        <ele>132.31860351562</ele>
        <time>2014-12-18T13:53:26Z</time>
      </trkpt>
      <trkpt lat="44.23225" lon="0.6292">
        <ele>129.43469238281</ele>
        <time>2014-12-18T13:53:44Z</time>
      </trkpt>
      <trkpt lat="44.23221" lon="0.62918">
        <ele>128.9541015625</ele>
        <time>2014-12-18T13:53:49Z</time>
      </trkpt>
      <trkpt lat="44.23206" lon="0.62924">
        <ele>128.9541015625</ele>
        <time>2014-12-18T13:54:05Z</time>
      </trkpt>
      <trkpt lat="44.23204" lon="0.62923">
        <ele>128.9541015625</ele>
        <time>2014-12-18T13:54:07Z</time>
      </trkpt>
      <trkpt lat="44.23181" lon="0.6291">
        <ele>127.03137207031</ele>
        <time>2014-12-18T13:54:30Z</time>
      </trkpt>
      <trkpt lat="44.2316" lon="0.62907">
        <ele>126.55065917969</ele>
        <time>2014-12-18T13:54:51Z</time>
      </trkpt>
      <trkpt lat="44.2314" lon="0.62886">
        <ele>126.55065917969</ele>
        <time>2014-12-18T13:55:13Z</time>
      </trkpt>
      <trkpt lat="44.23131" lon="0.62868">
        <ele>127.03137207031</ele>
        <time>2014-12-18T13:55:28Z</time>
      </trkpt>
      <trkpt lat="44.2312" lon="0.62848">
        <ele>126.06994628906</ele>
        <time>2014-12-18T13:55:46Z</time>
      </trkpt>
      <trkpt lat="44.2311" lon="0.62826">
        <ele>124.14733886719</ele>
        <time>2014-12-18T13:56:06Z</time>
      </trkpt>
      <trkpt lat="44.23111" lon="0.62823">
        <ele>124.62805175781</ele>
        <time>2014-12-18T13:56:09Z</time>
      </trkpt>
      <trkpt lat="44.23116" lon="0.62819">
        <ele>123.66674804688</ele>
        <time>2014-12-18T13:56:16Z</time>
      </trkpt>
      <trkpt lat="44.23133" lon="0.62809">
        <ele>127.99255371094</ele>
        <time>2014-12-18T13:56:34Z</time>
      </trkpt>
      <trkpt lat="44.23148" lon="0.62796">
        <ele>135.20251464844</ele>
        <time>2014-12-18T13:56:52Z</time>
      </trkpt>
      <trkpt lat="44.23148" lon="0.62795">
        <ele>135.20251464844</ele>
        <time>2014-12-18T13:56:53Z</time>
      </trkpt>
      <trkpt lat="44.23157" lon="0.62788">
        <ele>138.56726074219</ele>
        <time>2014-12-18T13:57:04Z</time>
      </trkpt>
      <trkpt lat="44.23162" lon="0.62776">
        <ele>141.45104980469</ele>
        <time>2014-12-18T13:57:18Z</time>
      </trkpt>
      <trkpt lat="44.23158" lon="0.62768">
        <ele>142.41247558594</ele>
        <time>2014-12-18T13:57:24Z</time>
      </trkpt>
      <trkpt lat="44.23149" lon="0.62741">
        <ele>143.37365722656</ele>
        <time>2014-12-18T13:57:45Z</time>
      </trkpt>
      <trkpt lat="44.23145" lon="0.62714">
        <ele>139.52844238281</ele>
        <time>2014-12-18T13:58:07Z</time>
      </trkpt>
      <trkpt lat="44.23154" lon="0.6269">
        <ele>139.52844238281</ele>
        <time>2014-12-18T13:58:31Z</time>
      </trkpt>
      <trkpt lat="44.23168" lon="0.62676">
        <ele>141.93176269531</ele>
        <time>2014-12-18T13:58:51Z</time>
      </trkpt>
      <trkpt lat="44.2318" lon="0.62663">
        <ele>145.29638671875</ele>
        <time>2014-12-18T13:59:08Z</time>
      </trkpt>
      <trkpt lat="44.23184" lon="0.6266">
        <ele>147.21899414062</ele>
        <time>2014-12-18T13:59:14Z</time>
      </trkpt>
      <trkpt lat="44.23192" lon="0.62649">
        <ele>149.62231445312</ele>
        <time>2014-12-18T13:59:30Z</time>
      </trkpt>
      <trkpt lat="44.23202" lon="0.62636">
        <ele>152.02575683594</ele>
        <time>2014-12-18T13:59:48Z</time>
      </trkpt>
      <trkpt lat="44.23212" lon="0.62625">
        <ele>154.42895507812</ele>
        <time>2014-12-18T14:00:05Z</time>
      </trkpt>
      <trkpt lat="44.23219" lon="0.62611">
        <ele>153.94836425781</ele>
        <time>2014-12-18T14:00:25Z</time>
      </trkpt>
      <trkpt lat="44.23218" lon="0.62592">
        <ele>153.94836425781</ele>
        <time>2014-12-18T14:00:43Z</time>
      </trkpt>
      <trkpt lat="44.23217" lon="0.62576">
        <ele>153.94836425781</ele>
        <time>2014-12-18T14:00:58Z</time>
      </trkpt>
      <trkpt lat="44.23215" lon="0.62572">
        <ele>154.42895507812</ele>
        <time>2014-12-18T14:01:30Z</time>
      </trkpt>
      <trkpt lat="44.23214" lon="0.62574">
        <ele>155.39025878906</ele>
        <time>2014-12-18T14:02:03Z</time>
      </trkpt>
      <trkpt lat="44.2321" lon="0.62567">
        <ele>154.90954589844</ele>
        <time>2014-12-18T14:03:32Z</time>
      </trkpt>
      <trkpt lat="44.23196" lon="0.62551">
        <ele>152.98693847656</ele>
        <time>2014-12-18T14:03:53Z</time>
      </trkpt>
      <trkpt lat="44.23183" lon="0.62539">
        <ele>151.06420898438</ele>
        <time>2014-12-18T14:04:09Z</time>
      </trkpt>
      <trkpt lat="44.23172" lon="0.62532">
        <ele>149.1416015625</ele>
        <time>2014-12-18T14:04:25Z</time>
      </trkpt>
      <trkpt lat="44.23155" lon="0.62518">
        <ele>146.73840332031</ele>
        <time>2014-12-18T14:04:46Z</time>
      </trkpt>
      <trkpt lat="44.23139" lon="0.62499">
        <ele>143.37365722656</ele>
        <time>2014-12-18T14:05:06Z</time>
      </trkpt>
      <trkpt lat="44.23116" lon="0.62473">
        <ele>139.52844238281</ele>
        <time>2014-12-18T14:05:34Z</time>
      </trkpt>
      <trkpt lat="44.23094" lon="0.62443">
        <ele>136.16394042969</ele>
        <time>2014-12-18T14:06:05Z</time>
      </trkpt>
      <trkpt lat="44.23086" lon="0.62418">
        <ele>134.72192382812</ele>
        <time>2014-12-18T14:06:25Z</time>
      </trkpt>
      <trkpt lat="44.23078" lon="0.62383">
        <ele>131.35729980469</ele>
        <time>2014-12-18T14:06:52Z</time>
      </trkpt>
      <trkpt lat="44.23074" lon="0.62365">
        <ele>129.91528320312</ele>
        <time>2014-12-18T14:07:06Z</time>
      </trkpt>
      <trkpt lat="44.23063" lon="0.62331">
        <ele>127.99255371094</ele>
        <time>2014-12-18T14:07:29Z</time>
      </trkpt>
      <trkpt lat="44.23048" lon="0.62307">
        <ele>126.06994628906</ele>
        <time>2014-12-18T14:07:51Z</time>
      </trkpt>
      <trkpt lat="44.23039" lon="0.62292">
        <ele>125.10876464844</ele>
        <time>2014-12-18T14:08:10Z</time>
      </trkpt>
      <trkpt lat="44.23027" lon="0.62276">
        <ele>123.18615722656</ele>
        <time>2014-12-18T14:08:28Z</time>
      </trkpt>
      <trkpt lat="44.23018" lon="0.62258">
        <ele>121.744140625</ele>
        <time>2014-12-18T14:08:47Z</time>
      </trkpt>
      <trkpt lat="44.23019" lon="0.62249">
        <ele>120.30212402344</ele>
        <time>2014-12-18T14:09:03Z</time>
      </trkpt>
      <trkpt lat="44.23021" lon="0.62248">
        <ele>119.82141113281</ele>
        <time>2014-12-18T14:09:09Z</time>
      </trkpt>
      <trkpt lat="44.23032" lon="0.62241">
        <ele>115.97619628906</ele>
        <time>2014-12-18T14:09:23Z</time>
      </trkpt>
      <trkpt lat="44.23053" lon="0.62235">
        <ele>112.13098144531</ele>
        <time>2014-12-18T14:09:41Z</time>
      </trkpt>
      <trkpt lat="44.23072" lon="0.62227">
        <ele>109.24694824219</ele>
        <time>2014-12-18T14:09:59Z</time>
      </trkpt>
      <trkpt lat="44.23073" lon="0.62227">
        <ele>109.24694824219</ele>
        <time>2014-12-18T14:10:00Z</time>
      </trkpt>
      <trkpt lat="44.23079" lon="0.62224">
        <ele>108.76623535156</ele>
        <time>2014-12-18T14:10:06Z</time>
      </trkpt>
      <trkpt lat="44.23095" lon="0.62213">
        <ele>106.84362792969</ele>
        <time>2014-12-18T14:10:20Z</time>
      </trkpt>
      <trkpt lat="44.23105" lon="0.62203">
        <ele>110.20825195312</ele>
        <time>2014-12-18T14:10:35Z</time>
      </trkpt>
      <trkpt lat="44.23107" lon="0.62201">
        <ele>109.72766113281</ele>
        <time>2014-12-18T14:10:38Z</time>
      </trkpt>
      <trkpt lat="44.23118" lon="0.62187">
        <ele>111.65026855469</ele>
        <time>2014-12-18T14:10:54Z</time>
      </trkpt>
      <trkpt lat="44.23129" lon="0.62182">
        <ele>114.05358886719</ele>
        <time>2014-12-18T14:11:08Z</time>
      </trkpt>
      <trkpt lat="44.23139" lon="0.62178">
        <ele>119.3408203125</ele>
        <time>2014-12-18T14:11:23Z</time>
      </trkpt>
      <trkpt lat="44.23145" lon="0.62177">
        <ele>124.62805175781</ele>
        <time>2014-12-18T14:11:38Z</time>
      </trkpt>
      <trkpt lat="44.23135" lon="0.62187">
        <ele>126.55065917969</ele>
        <time>2014-12-18T14:11:54Z</time>
      </trkpt>
      <trkpt lat="44.23133" lon="0.62191">
        <ele>127.03137207031</ele>
        <time>2014-12-18T14:11:58Z</time>
      </trkpt>
      <trkpt lat="44.2313" lon="0.62212">
        <ele>130.39599609375</ele>
        <time>2014-12-18T14:12:19Z</time>
      </trkpt>
      <trkpt lat="44.23136" lon="0.62235">
        <ele>136.16394042969</ele>
        <time>2014-12-18T14:12:43Z</time>
      </trkpt>
      <trkpt lat="44.23147" lon="0.62246">
        <ele>138.56726074219</ele>
        <time>2014-12-18T14:13:01Z</time>
      </trkpt>
      <trkpt lat="44.23157" lon="0.62252">
        <ele>139.52844238281</ele>
        <time>2014-12-18T14:13:11Z</time>
      </trkpt>
      <trkpt lat="44.23175" lon="0.62254">
        <ele>140.97045898438</ele>
        <time>2014-12-18T14:13:28Z</time>
      </trkpt>
      <trkpt lat="44.23191" lon="0.62253">
        <ele>143.85437011719</ele>
        <time>2014-12-18T14:13:44Z</time>
      </trkpt>
      <trkpt lat="44.23207" lon="0.62253">
        <ele>146.2578125</ele>
        <time>2014-12-18T14:14:01Z</time>
      </trkpt>
      <trkpt lat="44.23219" lon="0.62254">
        <ele>147.21899414062</ele>
        <time>2014-12-18T14:14:16Z</time>
      </trkpt>
      <trkpt lat="44.2323" lon="0.62253">
        <ele>147.21899414062</ele>
        <time>2014-12-18T14:14:34Z</time>
      </trkpt>
      <trkpt lat="44.23242" lon="0.62252">
        <ele>151.06420898438</ele>
        <time>2014-12-18T14:14:47Z</time>
      </trkpt>
      <trkpt lat="44.23254" lon="0.62238">
        <ele>147.21899414062</ele>
        <time>2014-12-18T14:15:02Z</time>
      </trkpt>
      <trkpt lat="44.23259" lon="0.62227">
        <ele>143.85437011719</ele>
        <time>2014-12-18T14:15:12Z</time>
      </trkpt>
      <trkpt lat="44.23265" lon="0.62201">
        <ele>139.52844238281</ele>
        <time>2014-12-18T14:15:31Z</time>
      </trkpt>
      <trkpt lat="44.23266" lon="0.6218">
        <ele>135.68310546875</ele>
        <time>2014-12-18T14:15:46Z</time>
      </trkpt>
      <trkpt lat="44.23274" lon="0.62152">
        <ele>132.79931640625</ele>
        <time>2014-12-18T14:16:07Z</time>
      </trkpt>
      <trkpt lat="44.23277" lon="0.62139">
        <ele>132.79931640625</ele>
        <time>2014-12-18T14:16:17Z</time>
      </trkpt>
      <trkpt lat="44.23279" lon="0.62138">
        <ele>133.27990722656</ele>
        <time>2014-12-18T14:16:19Z</time>
      </trkpt>
      <trkpt lat="44.23297" lon="0.62125">
        <ele>132.31860351562</ele>
        <time>2014-12-18T14:16:41Z</time>
      </trkpt>
      <trkpt lat="44.23298" lon="0.62125">
        <ele>132.31860351562</ele>
        <time>2014-12-18T14:16:42Z</time>
      </trkpt>
      <trkpt lat="44.23316" lon="0.6213">
        <ele>135.20251464844</ele>
        <time>2014-12-18T14:16:59Z</time>
      </trkpt>
      <trkpt lat="44.23331" lon="0.62133">
        <ele>137.12524414062</ele>
        <time>2014-12-18T14:17:16Z</time>
      </trkpt>
      <trkpt lat="44.23344" lon="0.62137">
        <ele>140.97045898438</ele>
        <time>2014-12-18T14:17:34Z</time>
      </trkpt>
      <trkpt lat="44.23358" lon="0.62139">
        <ele>144.81579589844</ele>
        <time>2014-12-18T14:17:50Z</time>
      </trkpt>
      <trkpt lat="44.23371" lon="0.62141">
        <ele>148.66101074219</ele>
        <time>2014-12-18T14:18:07Z</time>
      </trkpt>
      <trkpt lat="44.23382" lon="0.62141">
        <ele>150.58361816406</ele>
        <time>2014-12-18T14:18:22Z</time>
      </trkpt>
      <trkpt lat="44.23395" lon="0.62144">
        <ele>154.90954589844</ele>
        <time>2014-12-18T14:18:40Z</time>
      </trkpt>
      <trkpt lat="44.23407" lon="0.62145">
        <ele>157.31286621094</ele>
        <time>2014-12-18T14:18:55Z</time>
      </trkpt>
      <trkpt lat="44.23423" lon="0.62147">
        <ele>161.63891601562</ele>
        <time>2014-12-18T14:19:16Z</time>
      </trkpt>
      <trkpt lat="44.23435" lon="0.62149">
        <ele>163.5615234375</ele>
        <time>2014-12-18T14:19:36Z</time>
      </trkpt>
      <trkpt lat="44.23448" lon="0.62151">
        <ele>165.96472167969</ele>
        <time>2014-12-18T14:19:53Z</time>
      </trkpt>
      <trkpt lat="44.23462" lon="0.62152">
        <ele>166.4453125</ele>
        <time>2014-12-18T14:20:10Z</time>
      </trkpt>
      <trkpt lat="44.23477" lon="0.62153">
        <ele>166.92602539062</ele>
        <time>2014-12-18T14:20:29Z</time>
      </trkpt>
      <trkpt lat="44.2349" lon="0.62156">
        <ele>170.29064941406</ele>
        <time>2014-12-18T14:20:48Z</time>
      </trkpt>
      <trkpt lat="44.235" lon="0.62155">
        <ele>172.69396972656</ele>
        <time>2014-12-18T14:21:06Z</time>
      </trkpt>
      <trkpt lat="44.23504" lon="0.62159">
        <ele>172.21325683594</ele>
        <time>2014-12-18T14:21:24Z</time>
      </trkpt>
      <trkpt lat="44.23506" lon="0.6216">
        <ele>171.73266601562</ele>
        <time>2014-12-18T14:22:30Z</time>
      </trkpt>
      <trkpt lat="44.23517" lon="0.62159">
        <ele>172.69396972656</ele>
        <time>2014-12-18T14:22:45Z</time>
      </trkpt>
      <trkpt lat="44.23521" lon="0.62159">
        <ele>173.17468261719</ele>
        <time>2014-12-18T14:22:51Z</time>
      </trkpt>
      <trkpt lat="44.23532" lon="0.62158">
        <ele>172.21325683594</ele>
        <time>2014-12-18T14:23:05Z</time>
      </trkpt>
      <trkpt lat="44.23547" lon="0.62162">
        <ele>171.25207519531</ele>
        <time>2014-12-18T14:23:19Z</time>
      </trkpt>
      <trkpt lat="44.23564" lon="0.6217">
        <ele>170.29064941406</ele>
        <time>2014-12-18T14:23:36Z</time>
      </trkpt>
      <trkpt lat="44.23574" lon="0.62179">
        <ele>174.61657714844</ele>
        <time>2014-12-18T14:23:50Z</time>
      </trkpt>
      <trkpt lat="44.23588" lon="0.62187">
        <ele>175.57788085938</ele>
        <time>2014-12-18T14:24:04Z</time>
      </trkpt>
      <trkpt lat="44.23599" lon="0.62196">
        <ele>178.4619140625</ele>
        <time>2014-12-18T14:24:20Z</time>
      </trkpt>
      <trkpt lat="44.23614" lon="0.62206">
        <ele>177.02001953125</ele>
        <time>2014-12-18T14:24:36Z</time>
      </trkpt>
      <trkpt lat="44.2362" lon="0.6221">
        <ele>175.57788085938</ele>
        <time>2014-12-18T14:24:42Z</time>
      </trkpt>
      <trkpt lat="44.23638" lon="0.62221">
        <ele>166.4453125</ele>
        <time>2014-12-18T14:25:02Z</time>
      </trkpt>
      <trkpt lat="44.23657" lon="0.62229">
        <ele>160.19689941406</ele>
        <time>2014-12-18T14:25:18Z</time>
      </trkpt>
      <trkpt lat="44.23671" lon="0.62237">
        <ele>156.3515625</ele>
        <time>2014-12-18T14:25:33Z</time>
      </trkpt>
      <trkpt lat="44.23686" lon="0.6225">
        <ele>152.98693847656</ele>
        <time>2014-12-18T14:25:49Z</time>
      </trkpt>
      <trkpt lat="44.23698" lon="0.62262">
        <ele>151.06420898438</ele>
        <time>2014-12-18T14:26:04Z</time>
      </trkpt>
      <trkpt lat="44.2371" lon="0.62279">
        <ele>146.73840332031</ele>
        <time>2014-12-18T14:26:21Z</time>
      </trkpt>
      <trkpt lat="44.23721" lon="0.6229">
        <ele>143.37365722656</ele>
        <time>2014-12-18T14:26:33Z</time>
      </trkpt>
      <trkpt lat="44.23725" lon="0.62293">
        <ele>141.45104980469</ele>
        <time>2014-12-18T14:26:37Z</time>
      </trkpt>
      <trkpt lat="44.23733" lon="0.62302">
        <ele>141.45104980469</ele>
        <time>2014-12-18T14:26:48Z</time>
      </trkpt>
      <trkpt lat="44.23743" lon="0.62312">
        <ele>140.00915527344</ele>
        <time>2014-12-18T14:26:58Z</time>
      </trkpt>
      <trkpt lat="44.23752" lon="0.62325">
        <ele>140.97045898438</ele>
        <time>2014-12-18T14:27:10Z</time>
      </trkpt>
      <trkpt lat="44.23758" lon="0.62339">
        <ele>144.33520507812</ele>
        <time>2014-12-18T14:27:24Z</time>
      </trkpt>
      <trkpt lat="44.23766" lon="0.62351">
        <ele>144.81579589844</ele>
        <time>2014-12-18T14:27:37Z</time>
      </trkpt>
      <trkpt lat="44.23776" lon="0.62367">
        <ele>144.81579589844</ele>
        <time>2014-12-18T14:27:53Z</time>
      </trkpt>
      <trkpt lat="44.2379" lon="0.62383">
        <ele>142.89306640625</ele>
        <time>2014-12-18T14:28:09Z</time>
      </trkpt>
      <trkpt lat="44.23795" lon="0.62389">
        <ele>144.33520507812</ele>
        <time>2014-12-18T14:28:15Z</time>
      </trkpt>
      <trkpt lat="44.23809" lon="0.624">
        <ele>150.10302734375</ele>
        <time>2014-12-18T14:28:31Z</time>
      </trkpt>
      <trkpt lat="44.23825" lon="0.62415">
        <ele>154.90954589844</ele>
        <time>2014-12-18T14:28:50Z</time>
      </trkpt>
      <trkpt lat="44.23841" lon="0.62425">
        <ele>157.31286621094</ele>
        <time>2014-12-18T14:29:07Z</time>
      </trkpt>
      <trkpt lat="44.23846" lon="0.62428">
        <ele>157.31286621094</ele>
        <time>2014-12-18T14:29:12Z</time>
      </trkpt>
      <trkpt lat="44.23863" lon="0.62433">
        <ele>153.46765136719</ele>
        <time>2014-12-18T14:29:25Z</time>
      </trkpt>
      <trkpt lat="44.23887" lon="0.62435">
        <ele>151.06420898438</ele>
        <time>2014-12-18T14:29:42Z</time>
      </trkpt>
      <trkpt lat="44.23902" lon="0.62433">
        <ele>149.1416015625</ele>
        <time>2014-12-18T14:29:56Z</time>
      </trkpt>
      <trkpt lat="44.23918" lon="0.62432">
        <ele>149.1416015625</ele>
        <time>2014-12-18T14:30:12Z</time>
      </trkpt>
      <trkpt lat="44.23934" lon="0.62427">
        <ele>148.66101074219</ele>
        <time>2014-12-18T14:30:29Z</time>
      </trkpt>
      <trkpt lat="44.23943" lon="0.62424">
        <ele>148.66101074219</ele>
        <time>2014-12-18T14:30:38Z</time>
      </trkpt>
      <trkpt lat="44.23956" lon="0.62425">
        <ele>147.69970703125</ele>
        <time>2014-12-18T14:30:49Z</time>
      </trkpt>
      <trkpt lat="44.23972" lon="0.62429">
        <ele>147.21899414062</ele>
        <time>2014-12-18T14:31:03Z</time>
      </trkpt>
      <trkpt lat="44.23987" lon="0.62434">
        <ele>146.2578125</ele>
        <time>2014-12-18T14:31:20Z</time>
      </trkpt>
      <trkpt lat="44.24007" lon="0.62442">
        <ele>147.69970703125</ele>
        <time>2014-12-18T14:31:40Z</time>
      </trkpt>
      <trkpt lat="44.24027" lon="0.62446">
        <ele>145.77709960938</ele>
        <time>2014-12-18T14:32:01Z</time>
      </trkpt>
      <trkpt lat="44.24045" lon="0.62437">
        <ele>143.85437011719</ele>
        <time>2014-12-18T14:32:18Z</time>
      </trkpt>
      <trkpt lat="44.24057" lon="0.62431">
        <ele>142.89306640625</ele>
        <time>2014-12-18T14:32:35Z</time>
      </trkpt>
      <trkpt lat="44.24065" lon="0.62429">
        <ele>140.97045898438</ele>
        <time>2014-12-18T14:32:51Z</time>
      </trkpt>
      <trkpt lat="44.24069" lon="0.62424">
        <ele>138.56726074219</ele>
        <time>2014-12-18T14:33:38Z</time>
      </trkpt>
      <trkpt lat="44.24077" lon="0.62413">
        <ele>138.56726074219</ele>
        <time>2014-12-18T14:33:51Z</time>
      </trkpt>
      <trkpt lat="44.24078" lon="0.6241">
        <ele>138.56726074219</ele>
        <time>2014-12-18T14:33:53Z</time>
      </trkpt>
      <trkpt lat="44.24074" lon="0.62386">
        <ele>136.16394042969</ele>
        <time>2014-12-18T14:34:08Z</time>
      </trkpt>
      <trkpt lat="44.24067" lon="0.62347">
        <ele>135.68310546875</ele>
        <time>2014-12-18T14:34:33Z</time>
      </trkpt>
      <trkpt lat="44.24077" lon="0.62336">
        <ele>137.12524414062</ele>
        <time>2014-12-18T14:34:46Z</time>
      </trkpt>
      <trkpt lat="44.24093" lon="0.62332">
        <ele>139.0478515625</ele>
        <time>2014-12-18T14:35:03Z</time>
      </trkpt>
      <trkpt lat="44.24095" lon="0.62329">
        <ele>139.52844238281</ele>
        <time>2014-12-18T14:35:06Z</time>
      </trkpt>
      <trkpt lat="44.24106" lon="0.62323">
        <ele>139.52844238281</ele>
        <time>2014-12-18T14:35:20Z</time>
      </trkpt>
      <trkpt lat="44.24118" lon="0.62319">
        <ele>144.81579589844</ele>
        <time>2014-12-18T14:35:36Z</time>
      </trkpt>
      <trkpt lat="44.24123" lon="0.62313">
        <ele>145.29638671875</ele>
        <time>2014-12-18T14:35:47Z</time>
      </trkpt>
      <trkpt lat="44.24126" lon="0.62309">
        <ele>143.85437011719</ele>
        <time>2014-12-18T14:36:05Z</time>
      </trkpt>
      <trkpt lat="44.24139" lon="0.62304">
        <ele>147.69970703125</ele>
        <time>2014-12-18T14:36:23Z</time>
      </trkpt>
      <trkpt lat="44.24159" lon="0.62294">
        <ele>153.46765136719</ele>
        <time>2014-12-18T14:36:50Z</time>
      </trkpt>
      <trkpt lat="44.24175" lon="0.62291">
        <ele>155.87097167969</ele>
        <time>2014-12-18T14:37:08Z</time>
      </trkpt>
      <trkpt lat="44.24194" lon="0.62287">
        <ele>159.71618652344</ele>
        <time>2014-12-18T14:37:31Z</time>
      </trkpt>
      <trkpt lat="44.24214" lon="0.62283">
        <ele>164.04211425781</ele>
        <time>2014-12-18T14:37:56Z</time>
      </trkpt>
      <trkpt lat="44.24229" lon="0.62281">
        <ele>170.29064941406</ele>
        <time>2014-12-18T14:38:15Z</time>
      </trkpt>
      <trkpt lat="44.24249" lon="0.62281">
        <ele>171.73266601562</ele>
        <time>2014-12-18T14:38:34Z</time>
      </trkpt>
      <trkpt lat="44.24269" lon="0.62278">
        <ele>173.6552734375</ele>
        <time>2014-12-18T14:38:56Z</time>
      </trkpt>
      <trkpt lat="44.24286" lon="0.6228">
        <ele>175.09729003906</ele>
        <time>2014-12-18T14:39:16Z</time>
      </trkpt>
      <trkpt lat="44.24296" lon="0.62284">
        <ele>175.57788085938</ele>
        <time>2014-12-18T14:39:34Z</time>
      </trkpt>
      <trkpt lat="44.24308" lon="0.6229">
        <ele>177.50061035156</ele>
        <time>2014-12-18T14:39:46Z</time>
      </trkpt>
      <trkpt lat="44.24317" lon="0.62294">
        <ele>182.30712890625</ele>
        <time>2014-12-18T14:39:59Z</time>
      </trkpt>
      <trkpt lat="44.24322" lon="0.62295">
        <ele>183.26843261719</ele>
        <time>2014-12-18T14:40:05Z</time>
      </trkpt>
      <trkpt lat="44.24335" lon="0.62295">
        <ele>186.63317871094</ele>
        <time>2014-12-18T14:40:19Z</time>
      </trkpt>
      <trkpt lat="44.24348" lon="0.62291">
        <ele>186.63317871094</ele>
        <time>2014-12-18T14:40:33Z</time>
      </trkpt>
      <trkpt lat="44.24361" lon="0.62285">
        <ele>184.71057128906</ele>
        <time>2014-12-18T14:40:46Z</time>
      </trkpt>
      <trkpt lat="44.24375" lon="0.62282">
        <ele>185.19116210938</ele>
        <time>2014-12-18T14:40:59Z</time>
      </trkpt>
      <trkpt lat="44.24387" lon="0.6228">
        <ele>185.19116210938</ele>
        <time>2014-12-18T14:41:10Z</time>
      </trkpt>
      <trkpt lat="44.24396" lon="0.62278">
        <ele>184.22985839844</ele>
        <time>2014-12-18T14:41:23Z</time>
      </trkpt>
      <trkpt lat="44.24402" lon="0.62289">
        <ele>182.78784179688</ele>
        <time>2014-12-18T14:42:48Z</time>
      </trkpt>
      <trkpt lat="44.24402" lon="0.6229">
        <ele>182.78784179688</ele>
        <time>2014-12-18T14:42:49Z</time>
      </trkpt>
      <trkpt lat="44.24411" lon="0.62319">
        <ele>186.15246582031</ele>
        <time>2014-12-18T14:43:12Z</time>
      </trkpt>
      <trkpt lat="44.24421" lon="0.62347">
        <ele>187.59436035156</ele>
        <time>2014-12-18T14:43:32Z</time>
      </trkpt>
      <trkpt lat="44.24423" lon="0.62349">
        <ele>188.07507324219</ele>
        <time>2014-12-18T14:43:35Z</time>
      </trkpt>
      <trkpt lat="44.24426" lon="0.6235">
        <ele>187.59436035156</ele>
        <time>2014-12-18T14:43:38Z</time>
      </trkpt>
      <trkpt lat="44.24436" lon="0.62374">
        <ele>186.63317871094</ele>
        <time>2014-12-18T14:43:55Z</time>
      </trkpt>
      <trkpt lat="44.24444" lon="0.62392">
        <ele>188.07507324219</ele>
        <time>2014-12-18T14:44:08Z</time>
      </trkpt>
      <trkpt lat="44.24459" lon="0.62421">
        <ele>186.63317871094</ele>
        <time>2014-12-18T14:44:30Z</time>
      </trkpt>
      <trkpt lat="44.24471" lon="0.62457">
        <ele>185.19116210938</ele>
        <time>2014-12-18T14:44:54Z</time>
      </trkpt>
      <trkpt lat="44.24476" lon="0.62476">
        <ele>185.19116210938</ele>
        <time>2014-12-18T14:45:07Z</time>
      </trkpt>
      <trkpt lat="44.24479" lon="0.62487">
        <ele>183.7490234375</ele>
        <time>2014-12-18T14:45:13Z</time>
      </trkpt>
      <trkpt lat="44.24481" lon="0.62491">
        <ele>183.26843261719</ele>
        <time>2014-12-18T14:45:17Z</time>
      </trkpt>
      <trkpt lat="44.24483" lon="0.62499">
        <ele>182.78784179688</ele>
        <time>2014-12-18T14:45:24Z</time>
      </trkpt>
      <trkpt lat="44.24484" lon="0.62507">
        <ele>181.34582519531</ele>
        <time>2014-12-18T14:45:29Z</time>
      </trkpt>
      <trkpt lat="44.24488" lon="0.62529">
        <ele>177.50061035156</ele>
        <time>2014-12-18T14:45:43Z</time>
      </trkpt>
      <trkpt lat="44.24498" lon="0.62575">
        <ele>178.4619140625</ele>
        <time>2014-12-18T14:46:11Z</time>
      </trkpt>
      <trkpt lat="44.24501" lon="0.62617">
        <ele>174.13586425781</ele>
        <time>2014-12-18T14:46:39Z</time>
      </trkpt>
      <trkpt lat="44.245" lon="0.62645">
        <ele>171.25207519531</ele>
        <time>2014-12-18T14:46:58Z</time>
      </trkpt>
      <trkpt lat="44.24502" lon="0.62673">
        <ele>174.13586425781</ele>
        <time>2014-12-18T14:47:15Z</time>
      </trkpt>
      <trkpt lat="44.24502" lon="0.62677">
        <ele>174.13586425781</ele>
        <time>2014-12-18T14:47:17Z</time>
      </trkpt>
      <trkpt lat="44.24501" lon="0.62684">
        <ele>175.09729003906</ele>
        <time>2014-12-18T14:47:21Z</time>
      </trkpt>
      <trkpt lat="44.24504" lon="0.62704">
        <ele>177.02001953125</ele>
        <time>2014-12-18T14:47:33Z</time>
      </trkpt>
      <trkpt lat="44.24509" lon="0.62734">
        <ele>181.82641601562</ele>
        <time>2014-12-18T14:47:51Z</time>
      </trkpt>
      <trkpt lat="44.24513" lon="0.62756">
        <ele>181.82641601562</ele>
        <time>2014-12-18T14:48:05Z</time>
      </trkpt>
      <trkpt lat="44.24514" lon="0.6276">
        <ele>180.865234375</ele>
        <time>2014-12-18T14:48:08Z</time>
      </trkpt>
      <trkpt lat="44.24522" lon="0.62789">
        <ele>180.38452148438</ele>
        <time>2014-12-18T14:48:27Z</time>
      </trkpt>
      <trkpt lat="44.24526" lon="0.628">
        <ele>179.90380859375</ele>
        <time>2014-12-18T14:48:35Z</time>
      </trkpt>
      <trkpt lat="44.24528" lon="0.62812">
        <ele>179.90380859375</ele>
        <time>2014-12-18T14:48:43Z</time>
      </trkpt>
      <trkpt lat="44.24538" lon="0.62845">
        <ele>179.42321777344</ele>
        <time>2014-12-18T14:49:06Z</time>
      </trkpt>
      <trkpt lat="44.24543" lon="0.62874">
        <ele>179.90380859375</ele>
        <time>2014-12-18T14:49:24Z</time>
      </trkpt>
      <trkpt lat="44.24547" lon="0.62907">
        <ele>180.38452148438</ele>
        <time>2014-12-18T14:49:45Z</time>
      </trkpt>
      <trkpt lat="44.24548" lon="0.62946">
        <ele>182.30712890625</ele>
        <time>2014-12-18T14:50:09Z</time>
      </trkpt>
      <trkpt lat="44.24548" lon="0.62983">
        <ele>183.26843261719</ele>
        <time>2014-12-18T14:50:32Z</time>
      </trkpt>
      <trkpt lat="44.24548" lon="0.63012">
        <ele>184.71057128906</ele>
        <time>2014-12-18T14:50:52Z</time>
      </trkpt>
      <trkpt lat="44.24549" lon="0.63051">
        <ele>186.15246582031</ele>
        <time>2014-12-18T14:51:17Z</time>
      </trkpt>
      <trkpt lat="44.24548" lon="0.63089">
        <ele>186.63317871094</ele>
        <time>2014-12-18T14:51:44Z</time>
      </trkpt>
      <trkpt lat="44.24544" lon="0.6312">
        <ele>187.59436035156</ele>
        <time>2014-12-18T14:52:05Z</time>
      </trkpt>
      <trkpt lat="44.24538" lon="0.63151">
        <ele>187.11376953125</ele>
        <time>2014-12-18T14:52:26Z</time>
      </trkpt>
      <trkpt lat="44.24538" lon="0.63156">
        <ele>187.11376953125</ele>
        <time>2014-12-18T14:52:30Z</time>
      </trkpt>
      <trkpt lat="44.24536" lon="0.63161">
        <ele>187.11376953125</ele>
        <time>2014-12-18T14:52:33Z</time>
      </trkpt>
      <trkpt lat="44.24536" lon="0.63165">
        <ele>186.63317871094</ele>
        <time>2014-12-18T14:52:36Z</time>
      </trkpt>
      <trkpt lat="44.24524" lon="0.63197">
        <ele>183.26843261719</ele>
        <time>2014-12-18T14:53:00Z</time>
      </trkpt>
      <trkpt lat="44.24511" lon="0.63232">
        <ele>184.22985839844</ele>
        <time>2014-12-18T14:53:24Z</time>
      </trkpt>
      <trkpt lat="44.245" lon="0.63269">
        <ele>184.22985839844</ele>
        <time>2014-12-18T14:53:47Z</time>
      </trkpt>
      <trkpt lat="44.24491" lon="0.63295">
        <ele>183.7490234375</ele>
        <time>2014-12-18T14:54:05Z</time>
      </trkpt>
      <trkpt lat="44.24478" lon="0.63321">
        <ele>183.7490234375</ele>
        <time>2014-12-18T14:54:27Z</time>
      </trkpt>
      <trkpt lat="44.24467" lon="0.63335">
        <ele>182.30712890625</ele>
        <time>2014-12-18T14:54:43Z</time>
      </trkpt>
      <trkpt lat="44.24449" lon="0.63354">
        <ele>181.34582519531</ele>
        <time>2014-12-18T14:55:05Z</time>
      </trkpt>
      <trkpt lat="44.24425" lon="0.63377">
        <ele>180.38452148438</ele>
        <time>2014-12-18T14:55:30Z</time>
      </trkpt>
      <trkpt lat="44.24402" lon="0.63401">
        <ele>177.50061035156</ele>
        <time>2014-12-18T14:55:55Z</time>
      </trkpt>
      <trkpt lat="44.2438" lon="0.63418">
        <ele>179.42321777344</ele>
        <time>2014-12-18T14:56:17Z</time>
      </trkpt>
      <trkpt lat="44.24358" lon="0.63431">
        <ele>180.865234375</ele>
        <time>2014-12-18T14:56:36Z</time>
      </trkpt>
      <trkpt lat="44.2435" lon="0.63439">
        <ele>184.71057128906</ele>
        <time>2014-12-18T14:56:47Z</time>
      </trkpt>
      <trkpt lat="44.24334" lon="0.63455">
        <ele>185.19116210938</ele>
        <time>2014-12-18T14:57:03Z</time>
      </trkpt>
      <trkpt lat="44.24327" lon="0.63454">
        <ele>184.22985839844</ele>
        <time>2014-12-18T14:57:11Z</time>
      </trkpt>
      <trkpt lat="44.24311" lon="0.6343">
        <ele>179.90380859375</ele>
        <time>2014-12-18T14:57:31Z</time>
      </trkpt>
      <trkpt lat="44.243" lon="0.63413">
        <ele>179.42321777344</ele>
        <time>2014-12-18T14:57:46Z</time>
      </trkpt>
      <trkpt lat="44.24299" lon="0.63411">
        <ele>179.42321777344</ele>
        <time>2014-12-18T14:57:48Z</time>
      </trkpt>
      <trkpt lat="44.24297" lon="0.63408">
        <ele>178.94262695312</ele>
        <time>2014-12-18T14:57:51Z</time>
      </trkpt>
      <trkpt lat="44.24286" lon="0.63393">
        <ele>177.50061035156</ele>
        <time>2014-12-18T14:58:03Z</time>
      </trkpt>
      <trkpt lat="44.24284" lon="0.6339">
        <ele>176.53930664062</ele>
        <time>2014-12-18T14:58:05Z</time>
      </trkpt>
      <trkpt lat="44.24278" lon="0.63374">
        <ele>172.69396972656</ele>
        <time>2014-12-18T14:58:18Z</time>
      </trkpt>
      <trkpt lat="44.24269" lon="0.63352">
        <ele>168.36804199219</ele>
        <time>2014-12-18T14:58:36Z</time>
      </trkpt>
      <trkpt lat="44.24257" lon="0.63337">
        <ele>163.08081054688</ele>
        <time>2014-12-18T14:58:51Z</time>
      </trkpt>
      <trkpt lat="44.24252" lon="0.63334">
        <ele>163.08081054688</ele>
        <time>2014-12-18T14:58:55Z</time>
      </trkpt>
      <trkpt lat="44.24232" lon="0.63326">
        <ele>163.08081054688</ele>
        <time>2014-12-18T14:59:13Z</time>
      </trkpt>
      <trkpt lat="44.24215" lon="0.63344">
        <ele>163.5615234375</ele>
        <time>2014-12-18T14:59:32Z</time>
      </trkpt>
      <trkpt lat="44.24206" lon="0.63369">
        <ele>166.4453125</ele>
        <time>2014-12-18T14:59:49Z</time>
      </trkpt>
      <trkpt lat="44.24202" lon="0.63381">
        <ele>167.88732910156</ele>
        <time>2014-12-18T14:59:57Z</time>
      </trkpt>
      <trkpt lat="44.242" lon="0.63383">
        <ele>168.36804199219</ele>
        <time>2014-12-18T14:59:59Z</time>
      </trkpt>
      <trkpt lat="44.24192" lon="0.63405">
        <ele>169.32946777344</ele>
        <time>2014-12-18T15:00:15Z</time>
      </trkpt>
      <trkpt lat="44.2419" lon="0.63411">
        <ele>169.81005859375</ele>
        <time>2014-12-18T15:00:19Z</time>
      </trkpt>
      <trkpt lat="44.24182" lon="0.63428">
        <ele>172.21325683594</ele>
        <time>2014-12-18T15:00:39Z</time>
      </trkpt>
      <trkpt lat="44.24175" lon="0.63448">
        <ele>173.6552734375</ele>
        <time>2014-12-18T15:00:55Z</time>
      </trkpt>
      <trkpt lat="44.24166" lon="0.63472">
        <ele>173.6552734375</ele>
        <time>2014-12-18T15:01:15Z</time>
      </trkpt>
      <trkpt lat="44.2416" lon="0.63486">
        <ele>172.21325683594</ele>
        <time>2014-12-18T15:01:30Z</time>
      </trkpt>
      <trkpt lat="44.2415" lon="0.63502">
        <ele>171.73266601562</ele>
        <time>2014-12-18T15:01:47Z</time>
      </trkpt>
      <trkpt lat="44.24135" lon="0.63527">
        <ele>169.32946777344</ele>
        <time>2014-12-18T15:02:09Z</time>
      </trkpt>
      <trkpt lat="44.24128" lon="0.6354">
        <ele>167.88732910156</ele>
        <time>2014-12-18T15:02:20Z</time>
      </trkpt>
      <trkpt lat="44.24122" lon="0.63552">
        <ele>167.40673828125</ele>
        <time>2014-12-18T15:02:30Z</time>
      </trkpt>
      <trkpt lat="44.24121" lon="0.63554">
        <ele>167.88732910156</ele>
        <time>2014-12-18T15:02:32Z</time>
      </trkpt>
      <trkpt lat="44.24118" lon="0.6356">
        <ele>167.88732910156</ele>
        <time>2014-12-18T15:02:36Z</time>
      </trkpt>
      <trkpt lat="44.24109" lon="0.63583">
        <ele>166.4453125</ele>
        <time>2014-12-18T15:02:54Z</time>
      </trkpt>
      <trkpt lat="44.24101" lon="0.6361">
        <ele>165.48413085938</ele>
        <time>2014-12-18T15:03:15Z</time>
      </trkpt>
      <trkpt lat="44.24088" lon="0.63626">
        <ele>164.04211425781</ele>
        <time>2014-12-18T15:03:35Z</time>
      </trkpt>
      <trkpt lat="44.2408" lon="0.63633">
        <ele>163.5615234375</ele>
        <time>2014-12-18T15:03:47Z</time>
      </trkpt>
      <trkpt lat="44.24057" lon="0.63648">
        <ele>159.23547363281</ele>
        <time>2014-12-18T15:04:13Z</time>
      </trkpt>
      <trkpt lat="44.24053" lon="0.63648">
        <ele>158.27416992188</ele>
        <time>2014-12-18T15:04:18Z</time>
      </trkpt>
      <trkpt lat="44.24051" lon="0.63647">
        <ele>157.79357910156</ele>
        <time>2014-12-18T15:04:20Z</time>
      </trkpt>
      <trkpt lat="44.24023" lon="0.63657">
        <ele>153.94836425781</ele>
        <time>2014-12-18T15:04:48Z</time>
      </trkpt>
      <trkpt lat="44.24002" lon="0.63653">
        <ele>150.10302734375</ele>
        <time>2014-12-18T15:05:10Z</time>
      </trkpt>
      <trkpt lat="44.23984" lon="0.63636">
        <ele>144.33520507812</ele>
        <time>2014-12-18T15:05:33Z</time>
      </trkpt>
      <trkpt lat="44.23959" lon="0.63612">
        <ele>140.48986816406</ele>
        <time>2014-12-18T15:06:03Z</time>
      </trkpt>
      <trkpt lat="44.23934" lon="0.6359">
        <ele>135.68310546875</ele>
        <time>2014-12-18T15:06:32Z</time>
      </trkpt>
      <trkpt lat="44.23914" lon="0.63572">
        <ele>134.2412109375</ele>
        <time>2014-12-18T15:06:55Z</time>
      </trkpt>
      <trkpt lat="44.2391" lon="0.63565">
        <ele>132.79931640625</ele>
        <time>2014-12-18T15:07:13Z</time>
      </trkpt>
      <trkpt lat="44.239" lon="0.63571">
        <ele>131.837890625</ele>
        <time>2014-12-18T15:07:32Z</time>
      </trkpt>
      <trkpt lat="44.23899" lon="0.63571">
        <ele>131.837890625</ele>
        <time>2014-12-18T15:07:33Z</time>
      </trkpt>
      <trkpt lat="44.23888" lon="0.63583">
        <ele>132.31860351562</ele>
        <time>2014-12-18T15:07:46Z</time>
      </trkpt>
      <trkpt lat="44.23884" lon="0.63586">
        <ele>133.27990722656</ele>
        <time>2014-12-18T15:07:50Z</time>
      </trkpt>
      <trkpt lat="44.23867" lon="0.63597">
        <ele>133.76049804688</ele>
        <time>2014-12-18T15:08:04Z</time>
      </trkpt>
      <trkpt lat="44.23858" lon="0.63607">
        <ele>135.68310546875</ele>
        <time>2014-12-18T15:08:14Z</time>
      </trkpt>
      <trkpt lat="44.23855" lon="0.63611">
        <ele>136.16394042969</ele>
        <time>2014-12-18T15:08:18Z</time>
      </trkpt>
      <trkpt lat="44.23837" lon="0.63624">
        <ele>136.16394042969</ele>
        <time>2014-12-18T15:08:41Z</time>
      </trkpt>
      <trkpt lat="44.23824" lon="0.63638">
        <ele>131.35729980469</ele>
        <time>2014-12-18T15:09:08Z</time>
      </trkpt>
      <trkpt lat="44.2382" lon="0.63659">
        <ele>128.9541015625</ele>
        <time>2014-12-18T15:09:27Z</time>
      </trkpt>
      <trkpt lat="44.23815" lon="0.63677">
        <ele>128.47338867188</ele>
        <time>2014-12-18T15:09:42Z</time>
      </trkpt>
      <trkpt lat="44.23804" lon="0.63702">
        <ele>127.03137207031</ele>
        <time>2014-12-18T15:10:05Z</time>
      </trkpt>
      <trkpt lat="44.238" lon="0.63705">
        <ele>124.14733886719</ele>
        <time>2014-12-18T15:10:15Z</time>
      </trkpt>
      <trkpt lat="44.23795" lon="0.63711">
        <ele>120.78283691406</ele>
        <time>2014-12-18T15:10:30Z</time>
      </trkpt>
      <trkpt lat="44.23782" lon="0.63724">
        <ele>118.37939453125</ele>
        <time>2014-12-18T15:10:54Z</time>
      </trkpt>
      <trkpt lat="44.23781" lon="0.63725">
        <ele>118.37939453125</ele>
        <time>2014-12-18T15:10:56Z</time>
      </trkpt>
      <trkpt lat="44.23774" lon="0.6374">
        <ele>117.89880371094</ele>
        <time>2014-12-18T15:11:12Z</time>
      </trkpt>
      <trkpt lat="44.23779" lon="0.63756">
        <ele>116.45678710938</ele>
        <time>2014-12-18T15:11:29Z</time>
      </trkpt>
      <trkpt lat="44.23782" lon="0.63761">
        <ele>114.5341796875</ele>
        <time>2014-12-18T15:11:38Z</time>
      </trkpt>
      <trkpt lat="44.23794" lon="0.63773">
        <ele>114.5341796875</ele>
        <time>2014-12-18T15:11:50Z</time>
      </trkpt>
      <trkpt lat="44.23807" lon="0.63791">
        <ele>113.09228515625</ele>
        <time>2014-12-18T15:12:05Z</time>
      </trkpt>
      <trkpt lat="44.23808" lon="0.63793">
        <ele>112.13098144531</ele>
        <time>2014-12-18T15:12:09Z</time>
      </trkpt>
      <trkpt lat="44.23816" lon="0.63803">
        <ele>114.05358886719</ele>
        <time>2014-12-18T15:12:19Z</time>
      </trkpt>
      <trkpt lat="44.23819" lon="0.63808">
        <ele>112.61157226562</ele>
        <time>2014-12-18T15:12:23Z</time>
      </trkpt>
      <trkpt lat="44.23824" lon="0.63817">
        <ele>111.65026855469</ele>
        <time>2014-12-18T15:12:31Z</time>
      </trkpt>
      <trkpt lat="44.23834" lon="0.63828">
        <ele>111.16955566406</ele>
        <time>2014-12-18T15:12:44Z</time>
      </trkpt>
      <trkpt lat="44.23844" lon="0.63845">
        <ele>110.20825195312</ele>
        <time>2014-12-18T15:13:00Z</time>
      </trkpt>
      <trkpt lat="44.2385" lon="0.63853">
        <ele>108.28564453125</ele>
        <time>2014-12-18T15:13:07Z</time>
      </trkpt>
      <trkpt lat="44.23863" lon="0.63871">
        <ele>108.28564453125</ele>
        <time>2014-12-18T15:13:24Z</time>
      </trkpt>
      <trkpt lat="44.23867" lon="0.63878">
        <ele>109.24694824219</ele>
        <time>2014-12-18T15:13:30Z</time>
      </trkpt>
      <trkpt lat="44.23879" lon="0.63895">
        <ele>111.65026855469</ele>
        <time>2014-12-18T15:13:48Z</time>
      </trkpt>
      <trkpt lat="44.23884" lon="0.63899">
        <ele>111.16955566406</ele>
        <time>2014-12-18T15:13:56Z</time>
      </trkpt>
      <trkpt lat="44.23892" lon="0.63908">
        <ele>106.84362792969</ele>
        <time>2014-12-18T15:14:09Z</time>
      </trkpt>
      <trkpt lat="44.23897" lon="0.63914">
        <ele>105.88244628906</ele>
        <time>2014-12-18T15:14:16Z</time>
      </trkpt>
      <trkpt lat="44.23908" lon="0.63925">
        <ele>107.80505371094</ele>
        <time>2014-12-18T15:14:30Z</time>
      </trkpt>
      <trkpt lat="44.23918" lon="0.63939">
        <ele>109.72766113281</ele>
        <time>2014-12-18T15:14:44Z</time>
      </trkpt>
      <trkpt lat="44.23931" lon="0.63954">
        <ele>107.32434082031</ele>
        <time>2014-12-18T15:15:00Z</time>
      </trkpt>
      <trkpt lat="44.23935" lon="0.63956">
        <ele>106.84362792969</ele>
        <time>2014-12-18T15:15:03Z</time>
      </trkpt>
      <trkpt lat="44.23946" lon="0.63975">
        <ele>112.13098144531</ele>
        <time>2014-12-18T15:15:19Z</time>
      </trkpt>
      <trkpt lat="44.23954" lon="0.63993">
        <ele>110.20825195312</ele>
        <time>2014-12-18T15:15:34Z</time>
      </trkpt>
      <trkpt lat="44.23958" lon="0.64001">
        <ele>109.72766113281</ele>
        <time>2014-12-18T15:15:41Z</time>
      </trkpt>
      <trkpt lat="44.23974" lon="0.64022">
        <ele>106.36303710938</ele>
        <time>2014-12-18T15:16:02Z</time>
      </trkpt>
      <trkpt lat="44.2399" lon="0.64045">
        <ele>102.51770019531</ele>
        <time>2014-12-18T15:16:24Z</time>
      </trkpt>
      <trkpt lat="44.23991" lon="0.64047">
        <ele>102.51770019531</ele>
        <time>2014-12-18T15:16:26Z</time>
      </trkpt>
      <trkpt lat="44.23993" lon="0.64054">
        <ele>102.037109375</ele>
        <time>2014-12-18T15:16:30Z</time>
      </trkpt>
      <trkpt lat="44.23993" lon="0.64059">
        <ele>101.07568359375</ele>
        <time>2014-12-18T15:16:33Z</time>
      </trkpt>
      <trkpt lat="44.2399" lon="0.6408">
        <ele>100.11450195312</ele>
        <time>2014-12-18T15:16:45Z</time>
      </trkpt>
      <trkpt lat="44.23986" lon="0.64094">
        <ele>100.11450195312</ele>
        <time>2014-12-18T15:16:56Z</time>
      </trkpt>
      <trkpt lat="44.23982" lon="0.64097">
        <ele>98.672485351562</ele>
        <time>2014-12-18T15:17:01Z</time>
      </trkpt>
      <trkpt lat="44.2397" lon="0.64109">
        <ele>99.6337890625</ele>
        <time>2014-12-18T15:17:11Z</time>
      </trkpt>
      <trkpt lat="44.23965" lon="0.64112">
        <ele>101.07568359375</ele>
        <time>2014-12-18T15:17:18Z</time>
      </trkpt>
    </trkseg>
  </trk>
</gpx>